Time;durP1;ratioP1;P1;durP2;ratioP2;P2;SDS_P1;SDS_P2;PMS_P1;PMS_P2;Temp;Humidity;BMP_temperature;BMP_pressure;BME280_temperature;BME280_humidity;BME280_pressure;Samples;Min_cycle;Max_cycle;Signal;HPM_P1;HPM_P2
2022/12/25 00:00:21;;;;;;;1.60;1.20;;;8.80;98.20;;;;;;5007331;28;20488;-74
2022/12/25 00:02:48;;;;;;;1.67;1.23;;;8.80;98.20;;;;;;5011271;28;20491;-74
2022/12/25 00:05:15;;;;;;;1.63;1.23;;;8.80;98.20;;;;;;5007431;28;20478;-74
2022/12/25 00:07:42;;;;;;;1.60;1.20;;;8.80;98.20;;;;;;5002644;28;20494;-74
2022/12/25 00:10:10;;;;;;;1.60;1.20;;;8.80;98.20;;;;;;4999413;28;20957;-74
2022/12/25 00:12:36;;;;;;;1.60;1.30;;;8.80;98.20;;;;;;5004510;28;20483;-74
2022/12/25 00:15:04;;;;;;;1.60;1.20;;;8.80;98.20;;;;;;5003545;28;20475;-74
2022/12/25 00:17:32;;;;;;;1.60;1.20;;;8.90;98.20;;;;;;5004488;28;20487;-74
2022/12/25 00:19:58;;;;;;;1.60;1.20;;;8.90;98.20;;;;;;5003253;28;20484;-74
2022/12/25 00:22:25;;;;;;;1.60;1.20;;;8.90;98.20;;;;;;5005158;28;20499;-74
2022/12/25 00:24:52;;;;;;;1.70;1.30;;;8.90;98.20;;;;;;5003923;28;20460;-74
2022/12/25 00:27:19;;;;;;;1.60;1.20;;;8.80;98.20;;;;;;5002191;28;20480;-75
2022/12/25 00:29:46;;;;;;;1.60;1.20;;;8.80;98.20;;;;;;5004476;28;20459;-74
2022/12/25 00:32:13;;;;;;;1.60;1.20;;;8.80;98.20;;;;;;5000882;28;20479;-76
2022/12/25 00:34:41;;;;;;;1.67;1.30;;;8.80;98.20;;;;;;5005665;28;20511;-74
2022/12/25 00:37:08;;;;;;;1.67;1.20;;;8.80;98.20;;;;;;5001481;28;20484;-74
2022/12/25 00:39:35;;;;;;;1.60;1.20;;;8.80;98.20;;;;;;5004994;28;20464;-75
2022/12/25 00:42:19;;;;;;;1.67;1.30;;;8.80;98.20;;;;;;5003381;28;20483;-74
2022/12/25 00:44:46;;;;;;;3.40;2.60;;;8.80;98.20;;;;;;5005721;28;20482;-75
2022/12/25 00:47:13;;;;;;;1.63;1.20;;;8.80;98.20;;;;;;5002368;28;20798;-74
2022/12/25 00:49:41;;;;;;;1.60;1.20;;;8.80;98.20;;;;;;5004558;28;20464;-75
2022/12/25 00:52:08;;;;;;;1.60;1.20;;;8.90;98.20;;;;;;5003755;28;20553;-74
2022/12/25 00:54:35;;;;;;;1.60;1.20;;;8.90;98.20;;;;;;5005699;28;20519;-74
2022/12/25 00:57:03;;;;;;;1.60;1.30;;;8.90;98.20;;;;;;4997824;28;20579;-73
2022/12/25 00:59:32;;;;;;;1.63;1.10;;;8.90;98.20;;;;;;5008979;28;20458;-72
2022/12/25 01:02:22;;;;;;;1.60;1.20;;;8.90;98.20;;;;;;4999728;28;20476;-73
2022/12/25 01:04:49;;;;;;;1.60;1.20;;;8.90;98.20;;;;;;5004974;28;20514;-75
2022/12/25 01:07:16;;;;;;;1.60;1.20;;;8.90;98.20;;;;;;5005000;28;20471;-74
2022/12/25 01:12:28;;;;;;;1.63;1.20;;;8.90;98.20;;;;;;5000645;28;20683;-75
2022/12/25 01:14:55;;;;;;;1.60;1.20;;;8.90;98.20;;;;;;5001580;28;20519;-75
2022/12/25 01:17:22;;;;;;;1.60;1.20;;;8.90;98.20;;;;;;5001931;28;20484;-75
2022/12/25 01:19:50;;;;;;;1.67;1.20;;;8.90;98.20;;;;;;5003553;28;20522;-75
2022/12/25 01:22:18;;;;;;;1.60;1.20;;;8.90;98.20;;;;;;5004968;28;20486;-75
2022/12/25 01:24:45;;;;;;;1.70;1.40;;;8.90;98.20;;;;;;5007756;28;20514;-75
2022/12/25 01:27:12;;;;;;;1.60;1.13;;;8.90;98.20;;;;;;5006685;28;20479;-75
2022/12/25 01:29:39;;;;;;;1.70;1.30;;;8.90;98.20;;;;;;5010055;28;20472;-75
2022/12/25 01:32:06;;;;;;;1.70;1.30;;;8.90;98.20;;;;;;5001169;28;20883;-75
2022/12/25 01:34:33;;;;;;;1.60;1.20;;;8.90;98.20;;;;;;5004682;28;20487;-75
2022/12/25 01:37:01;;;;;;;1.60;1.20;;;9.00;98.20;;;;;;5003759;28;20475;-75
2022/12/25 01:39:29;;;;;;;1.63;1.20;;;8.90;98.20;;;;;;5004191;28;21135;-75
2022/12/25 01:41:56;;;;;;;1.63;1.20;;;9.00;98.20;;;;;;5000141;28;20487;-75
2022/12/25 01:45:01;;;;;;;1.60;1.20;;;9.00;98.20;;;;;;5004740;28;20456;-75
2022/12/25 01:47:27;;;;;;;1.60;1.20;;;9.00;98.20;;;;;;5001051;28;20483;-75
2022/12/25 01:49:54;;;;;;;1.60;1.20;;;9.00;98.20;;;;;;5002207;28;21008;-75
2022/12/25 01:52:24;;;;;;;1.63;1.20;;;9.00;98.20;;;;;;5001515;28;20467;-75
2022/12/25 01:54:54;;;;;;;1.60;1.20;;;9.00;98.20;;;;;;5004984;28;20573;-75
2022/12/25 01:57:25;;;;;;;1.67;1.30;;;9.10;98.20;;;;;;5005256;28;20479;-75
2022/12/25 01:59:52;;;;;;;1.63;1.20;;;9.10;98.20;;;;;;5005299;28;20468;-75
2022/12/25 02:02:19;;;;;;;1.70;1.40;;;9.10;98.20;;;;;;5005211;28;20558;-75
2022/12/25 02:04:50;;;;;;;1.60;1.20;;;9.10;98.20;;;;;;5006795;28;20463;-73
2022/12/25 02:07:20;;;;;;;1.70;1.20;;;9.10;98.20;;;;;;5010972;28;20475;-73
2022/12/25 02:09:49;;;;;;;1.63;1.20;;;9.20;98.20;;;;;;5003293;28;20467;-73
2022/12/25 02:12:20;;;;;;;1.63;1.20;;;9.20;98.20;;;;;;5004613;28;20484;-73
2022/12/25 02:14:49;;;;;;;1.63;1.10;;;9.20;98.20;;;;;;5008828;28;20586;-73
2022/12/25 02:17:23;;;;;;;2.70;2.50;;;9.20;98.20;;;;;;5004628;28;20527;-73
2022/12/25 02:20:26;;;;;;;1.63;1.17;;;9.30;98.20;;;;;;5009812;28;20464;-73
2022/12/25 02:23:12;;;;;;;1.60;1.20;;;9.30;98.20;;;;;;5010956;28;21222;-73
2022/12/25 02:25:52;;;;;;;1.70;1.30;;;9.30;98.20;;;;;;5009308;28;20459;-73
2022/12/25 02:28:24;;;;;;;1.70;1.20;;;9.40;98.20;;;;;;4997553;28;20507;-73
2022/12/25 02:30:56;;;;;;;1.70;1.20;;;9.40;98.20;;;;;;4999813;28;20480;-73
2022/12/25 02:36:24;;;;;;;1.63;1.20;;;9.40;98.20;;;;;;4997994;28;20501;-74
2022/12/25 02:41:43;;;;;;;1.67;1.20;;;9.40;98.20;;;;;;4996903;28;20776;-74
2022/12/25 03:07:00;;;;;;;1.60;1.17;;;9.60;98.20;;;;;;5003741;28;20486;-74
2022/12/25 03:12:20;;;;;;;1.60;1.20;;;9.60;98.20;;;;;;5006213;28;20600;-73
2022/12/25 03:17:33;;;;;;;1.67;1.20;;;9.60;98.20;;;;;;5009673;28;20477;-73
2022/12/25 03:28:15;;;;;;;1.70;1.20;;;9.60;98.20;;;;;;4996669;28;20890;-73
2022/12/25 03:33:38;;;;;;;1.67;1.20;;;9.60;98.20;;;;;;4996117;28;20546;-73
2022/12/25 03:36:12;;;;;;;1.70;1.23;;;9.60;98.20;;;;;;4999561;28;20463;-74
2022/12/25 04:37:02;;;;;;;1.60;1.20;;;10.00;98.20;;;;;;5005957;28;20482;-74
2022/12/25 04:39:31;;;;;;;1.60;1.20;;;9.90;98.20;;;;;;5011696;28;20456;-74
2022/12/25 04:41:59;;;;;;;1.60;1.20;;;9.90;98.20;;;;;;5002086;28;20486;-74
2022/12/25 04:44:26;;;;;;;1.60;1.20;;;9.90;98.20;;;;;;5013227;28;20452;-74
2022/12/25 04:46:53;;;;;;;1.60;1.20;;;9.90;98.20;;;;;;5004290;28;20479;-74
2022/12/25 04:49:20;;;;;;;1.67;1.17;;;9.90;98.20;;;;;;5013041;28;20837;-74
2022/12/25 04:51:47;;;;;;;1.60;1.10;;;9.90;98.20;;;;;;5001175;28;20486;-74
2022/12/25 04:54:14;;;;;;;1.60;1.20;;;9.90;98.20;;;;;;5001161;28;20484;-74
2022/12/25 04:56:42;;;;;;;1.60;1.10;;;9.90;98.20;;;;;;5001993;28;20914;-74
2022/12/25 04:59:09;;;;;;;1.63;1.20;;;9.90;98.20;;;;;;5000954;28;20471;-74
2022/12/25 05:01:36;;;;;;;1.60;1.13;;;10.00;98.20;;;;;;5000593;28;20486;-74
2022/12/25 05:04:03;;;;;;;1.63;1.17;;;10.00;98.20;;;;;;5015263;28;20930;-74
2022/12/25 05:06:30;;;;;;;1.63;1.20;;;10.00;98.20;;;;;;5001601;28;20486;-74
2022/12/25 05:08:57;;;;;;;1.67;1.20;;;10.00;98.20;;;;;;5012393;28;20469;-74
2022/12/25 05:11:24;;;;;;;1.60;1.17;;;10.00;98.20;;;;;;5000887;28;20482;-74
2022/12/25 05:13:52;;;;;;;1.63;1.20;;;10.00;98.20;;;;;;5006058;28;20997;-74
2022/12/25 05:16:20;;;;;;;1.60;1.10;;;10.00;98.20;;;;;;5000326;28;20474;-74
2022/12/25 05:18:49;;;;;;;1.60;1.17;;;10.00;98.20;;;;;;5001378;28;20468;-74
2022/12/25 05:21:19;;;;;;;1.60;1.10;;;10.00;98.20;;;;;;4998811;28;20498;-74
2022/12/25 05:26:17;;;;;;;1.60;1.20;;;10.00;98.20;;;;;;4980753;28;20479;-76
2022/12/25 05:28:44;;;;;;;1.60;1.10;;;10.00;98.20;;;;;;5003108;28;20464;-76
2022/12/25 05:31:12;;;;;;;1.67;1.20;;;10.00;98.20;;;;;;4976277;28;20810;-75
2022/12/25 05:33:39;;;;;;;1.63;1.10;;;10.00;98.20;;;;;;4998309;28;20485;-76
2022/12/25 05:36:10;;;;;;;1.60;1.10;;;10.00;98.20;;;;;;4983541;28;20449;-75
2022/12/25 05:38:38;;;;;;;1.60;1.10;;;10.00;98.20;;;;;;5003216;28;20465;-77
2022/12/25 05:41:06;;;;;;;1.63;1.20;;;10.00;98.20;;;;;;4982316;28;20489;-77
2022/12/25 05:43:32;;;;;;;1.60;1.10;;;9.90;98.20;;;;;;5002548;28;20477;-76
2022/12/25 05:46:04;;;;;;;1.60;1.10;;;9.90;98.20;;;;;;4984240;28;20469;-78
2022/12/25 05:48:33;;;;;;;1.60;1.20;;;9.80;98.20;;;;;;5004549;28;20727;-76
2022/12/25 05:51:04;;;;;;;1.63;1.20;;;9.80;98.20;;;;;;4979125;28;20850;-77
2022/12/25 05:53:31;;;;;;;1.60;1.10;;;9.70;98.20;;;;;;4988453;28;20481;-76
2022/12/25 05:56:01;;;;;;;1.60;1.17;;;9.70;98.20;;;;;;4969383;28;20485;-76
2022/12/25 05:58:28;;;;;;;1.67;1.20;;;9.70;98.20;;;;;;4989725;28;20564;-76
2022/12/25 06:00:55;;;;;;;1.60;1.20;;;9.70;98.20;;;;;;4971784;28;20464;-78
2022/12/25 06:03:21;;;;;;;1.60;1.20;;;9.70;98.20;;;;;;4993087;28;20497;-75
2022/12/25 06:05:50;;;;;;;1.60;1.10;;;9.80;98.20;;;;;;4974429;28;20469;-76
2022/12/25 06:08:16;;;;;;;1.67;1.20;;;9.90;98.20;;;;;;4995475;28;21013;-76
2022/12/25 06:10:43;;;;;;;1.60;1.20;;;10.00;98.20;;;;;;4975275;28;20495;-77
2022/12/25 06:13:10;;;;;;;1.63;1.10;;;10.00;98.20;;;;;;4979609;28;20483;-74
2022/12/25 06:15:39;;;;;;;1.67;1.20;;;10.10;98.20;;;;;;4975656;28;20516;-75
2022/12/25 06:18:06;;;;;;;1.60;1.10;;;10.10;98.20;;;;;;4985130;28;20491;-77
2022/12/25 06:20:33;;;;;;;1.60;1.20;;;10.10;98.20;;;;;;4977573;28;20982;-76
2022/12/25 06:23:01;;;;;;;1.67;1.20;;;10.10;98.20;;;;;;4979939;28;20913;-76
2022/12/25 06:25:28;;;;;;;1.63;1.20;;;10.10;98.20;;;;;;4974762;28;20524;-75
2022/12/25 06:27:55;;;;;;;1.60;1.17;;;10.10;98.20;;;;;;4979656;28;21011;-76
2022/12/25 06:30:22;;;;;;;1.60;1.10;;;10.10;98.20;;;;;;4976048;28;20755;-76
2022/12/25 06:32:48;;;;;;;1.70;1.30;;;10.00;98.20;;;;;;4983600;28;20874;-73
2022/12/25 06:35:15;;;;;;;1.60;1.20;;;10.10;98.20;;;;;;4976452;28;20491;-75
2022/12/25 06:37:42;;;;;;;1.60;1.10;;;10.10;98.20;;;;;;4982334;28;20804;-76
2022/12/25 06:40:11;;;;;;;1.67;1.20;;;10.10;98.20;;;;;;4981322;28;20460;-75
2022/12/25 06:42:38;;;;;;;1.60;1.10;;;10.10;98.20;;;;;;4983189;28;20826;-75
2022/12/25 06:45:05;;;;;;;1.70;1.20;;;10.20;98.20;;;;;;4985888;28;20457;-76
2022/12/25 06:47:32;;;;;;;1.60;1.10;;;10.20;98.20;;;;;;4988822;28;20484;-77
2022/12/25 06:49:59;;;;;;;1.60;1.20;;;10.20;98.20;;;;;;4980108;28;20982;-74
2022/12/25 06:52:26;;;;;;;1.67;1.17;;;10.20;98.20;;;;;;4982557;28;20492;-76
2022/12/25 06:54:52;;;;;;;1.60;1.20;;;10.20;98.20;;;;;;4981156;28;20998;-77
2022/12/25 06:57:20;;;;;;;1.60;1.10;;;10.20;98.20;;;;;;4977224;28;20480;-74
2022/12/25 06:59:47;;;;;;;1.70;1.30;;;10.20;98.20;;;;;;4981121;28;20840;-75
2022/12/25 07:02:19;;;;;;;1.60;1.10;;;10.20;98.20;;;;;;4978017;28;20479;-75
2022/12/25 07:04:46;;;;;;;1.60;1.10;;;10.20;98.20;;;;;;4976451;28;21003;-75
2022/12/25 07:07:14;;;;;;;1.70;1.20;;;10.20;98.20;;;;;;4979693;28;20480;-78
2022/12/25 07:09:41;;;;;;;1.70;1.30;;;10.20;98.20;;;;;;4979497;28;20465;-77
2022/12/25 07:12:15;;;;;;;1.67;1.20;;;10.20;98.20;;;;;;4978164;28;20530;-76
2022/12/25 07:14:43;;;;;;;1.63;1.10;;;10.20;98.20;;;;;;4978299;28;20489;-76
2022/12/25 07:17:10;;;;;;;2.37;2.17;;;10.30;98.20;;;;;;4976888;28;20500;-76
2022/12/25 07:19:37;;;;;;;1.67;1.20;;;10.20;98.20;;;;;;4981931;28;20473;-77
2022/12/25 07:22:04;;;;;;;1.60;1.20;;;10.20;98.20;;;;;;4978373;28;20484;-76
2022/12/25 07:24:31;;;;;;;1.60;1.20;;;10.20;98.20;;;;;;4982647;28;20905;-77
2022/12/25 07:26:57;;;;;;;1.60;1.20;;;10.20;98.20;;;;;;4974932;28;20495;-76
2022/12/25 07:29:24;;;;;;;1.67;1.10;;;10.20;98.20;;;;;;4983769;28;20466;-77
2022/12/25 07:31:52;;;;;;;1.60;1.20;;;10.20;98.20;;;;;;4976782;28;20481;-75
2022/12/25 07:34:19;;;;;;;1.63;1.20;;;10.20;98.20;;;;;;4984603;28;20486;-76
2022/12/25 07:36:46;;;;;;;1.63;1.10;;;10.20;98.20;;;;;;4976735;28;20480;-75
2022/12/25 07:39:13;;;;;;;1.70;1.30;;;10.20;98.20;;;;;;4982240;28;20547;-76
2022/12/25 07:41:40;;;;;;;1.60;1.10;;;10.20;98.20;;;;;;4973749;28;20485;-75
2022/12/25 07:44:07;;;;;;;1.60;1.10;;;10.20;98.20;;;;;;4985901;28;20492;-75
2022/12/25 07:46:34;;;;;;;1.60;1.20;;;10.20;98.20;;;;;;4973878;28;20483;-74
2022/12/25 07:49:02;;;;;;;1.63;1.20;;;10.20;98.20;;;;;;4984843;28;20556;-75
2022/12/25 07:51:29;;;;;;;1.70;1.37;;;10.10;98.20;;;;;;4972167;28;20488;-76
2022/12/25 07:53:56;;;;;;;1.67;1.10;;;10.10;98.20;;;;;;4997093;28;20596;-77
2022/12/25 07:56:23;;;;;;;1.60;1.10;;;10.10;98.20;;;;;;4967781;28;20480;-77
2022/12/25 07:58:50;;;;;;;1.63;1.20;;;10.10;98.20;;;;;;4986602;28;20465;-75
2022/12/25 08:01:19;;;;;;;2.20;1.73;;;10.10;98.20;;;;;;4970360;28;21004;-75
2022/12/25 08:03:50;;;;;;;1.60;1.20;;;10.10;98.20;;;;;;4988318;28;20568;-76
2022/12/25 08:06:18;;;;;;;1.60;1.10;;;10.10;98.20;;;;;;4970455;28;20471;-76
2022/12/25 08:08:46;;;;;;;1.70;1.33;;;10.10;98.20;;;;;;4988822;28;20466;-78
2022/12/25 08:11:13;;;;;;;1.63;1.20;;;10.10;98.20;;;;;;4967516;28;20767;-78
2022/12/25 08:13:40;;;;;;;1.60;1.17;;;10.10;98.20;;;;;;4988273;28;20489;-76
2022/12/25 08:16:09;;;;;;;1.60;1.10;;;10.20;98.20;;;;;;4968993;28;20489;-76
2022/12/25 08:18:37;;;;;;;1.63;1.10;;;10.20;98.20;;;;;;4989916;28;20466;-77
2022/12/25 08:21:05;;;;;;;1.70;1.40;;;10.20;98.20;;;;;;4974251;28;20472;-78
2022/12/25 08:23:36;;;;;;;1.70;1.30;;;10.20;98.20;;;;;;4987637;28;20854;-77
2022/12/25 08:26:04;;;;;;;1.60;1.10;;;10.20;98.20;;;;;;4971420;28;20476;-79
2022/12/25 08:28:31;;;;;;;1.60;1.10;;;10.20;98.20;;;;;;4992134;28;20969;-76
2022/12/25 08:30:58;;;;;;;1.67;1.20;;;10.20;98.20;;;;;;4968467;28;20843;-77
2022/12/25 08:33:25;;;;;;;1.67;1.20;;;10.20;98.20;;;;;;4994995;28;20485;-76
2022/12/25 08:35:52;;;;;;;1.63;1.20;;;10.20;98.20;;;;;;4965092;28;20493;-76
2022/12/25 08:38:18;;;;;;;1.60;1.10;;;10.30;98.20;;;;;;4990141;28;20465;-76
2022/12/25 08:40:46;;;;;;;1.67;1.20;;;10.30;98.20;;;;;;4977076;28;20461;-74
2022/12/25 08:43:13;;;;;;;1.70;1.30;;;10.30;98.20;;;;;;4966487;28;20982;-76
2022/12/25 08:45:40;;;;;;;1.60;1.20;;;10.30;98.20;;;;;;4976911;28;20458;-74
2022/12/25 08:48:07;;;;;;;1.60;1.20;;;10.30;98.20;;;;;;4980402;28;20480;-77
2022/12/25 08:50:34;;;;;;;1.67;1.20;;;10.30;98.20;;;;;;4980333;28;20475;-79
2022/12/25 08:53:00;;;;;;;1.63;1.20;;;10.30;98.20;;;;;;4983029;28;20492;-77
2022/12/25 08:55:27;;;;;;;1.70;1.20;;;10.30;98.20;;;;;;4977948;28;20490;-78
2022/12/25 08:57:55;;;;;;;1.67;1.20;;;10.40;98.20;;;;;;4981077;28;21083;-77
2022/12/25 09:00:22;;;;;;;1.70;1.30;;;10.40;98.20;;;;;;4977270;28;20477;-78
2022/12/25 09:02:49;;;;;;;1.63;1.20;;;10.40;98.20;;;;;;4982274;28;20516;-79
2022/12/25 09:05:16;;;;;;;1.60;1.20;;;10.40;98.20;;;;;;4979889;28;20456;-78
2022/12/25 09:07:43;;;;;;;1.63;1.20;;;10.40;98.20;;;;;;4988858;28;20479;-80
2022/12/25 09:10:11;;;;;;;2.73;2.03;;;10.40;98.20;;;;;;4984475;28;20861;-79
2022/12/25 09:12:37;;;;;;;1.60;1.20;;;10.40;98.20;;;;;;4982124;28;20488;-77
2022/12/25 09:15:07;;;;;;;1.60;1.10;;;10.30;98.20;;;;;;4978231;28;20493;-78
2022/12/25 09:17:34;;;;;;;1.63;1.10;;;10.30;98.20;;;;;;4987043;28;20576;-77
2022/12/25 09:20:00;;;;;;;1.67;1.20;;;10.30;98.20;;;;;;4977966;28;20457;-78
2022/12/25 09:22:27;;;;;;;1.63;1.17;;;10.30;98.20;;;;;;4981133;28;20481;-78
2022/12/25 09:24:54;;;;;;;1.60;1.10;;;10.30;98.20;;;;;;4977138;28;20484;-78
2022/12/25 09:27:21;;;;;;;1.67;1.20;;;10.30;98.20;;;;;;4980344;28;20854;-78
2022/12/25 09:29:47;;;;;;;1.67;1.20;;;10.30;98.20;;;;;;4979328;28;20966;-79
2022/12/25 09:32:16;;;;;;;1.60;1.10;;;10.30;98.20;;;;;;4976773;28;20482;-79
2022/12/25 09:34:42;;;;;;;1.60;1.10;;;10.30;98.20;;;;;;4979919;28;20482;-77
2022/12/25 09:37:09;;;;;;;1.60;1.10;;;10.30;98.20;;;;;;4985576;28;20484;-79
2022/12/25 09:39:36;;;;;;;1.60;1.10;;;10.30;98.20;;;;;;4978295;28;20527;-79
2022/12/25 09:42:09;;;;;;;1.67;1.20;;;10.30;98.20;;;;;;4975619;28;20476;-77
2022/12/25 09:44:40;;;;;;;1.63;1.17;;;10.30;98.20;;;;;;4982112;28;20899;-79
2022/12/25 09:47:11;;;;;;;1.60;1.20;;;10.30;98.20;;;;;;4976949;28;20475;-80
2022/12/25 09:49:47;;;;;;;1.60;1.20;;;10.30;98.20;;;;;;4982719;28;20461;-78
2022/12/25 09:52:18;;;;;;;1.60;1.20;;;10.30;98.20;;;;;;4982061;28;21011;-80
2022/12/25 09:54:51;;;;;;;1.60;1.17;;;10.30;98.20;;;;;;4986497;28;20488;-80
2022/12/25 09:57:18;;;;;;;1.67;1.20;;;10.30;98.20;;;;;;4982024;28;20491;-79
2022/12/25 09:59:46;;;;;;;1.60;1.20;;;10.30;98.20;;;;;;4982396;28;20472;-79
2022/12/25 10:02:50;;;;;;;1.60;1.10;;;10.30;98.20;;;;;;4981362;28;20484;-79
2022/12/25 10:05:34;;;;;;;1.60;1.20;;;10.30;98.20;;;;;;4976064;28;20950;-80
2022/12/25 10:08:11;;;;;;;1.60;1.10;;;10.20;98.20;;;;;;4982052;28;20506;-80
2022/12/25 10:10:51;;;;;;;1.60;1.10;;;10.20;98.20;;;;;;4974719;28;20466;-76
2022/12/25 10:13:33;;;;;;;1.60;1.10;;;10.30;98.20;;;;;;4972621;28;20492;-77
2022/12/25 10:16:15;;;;;;;1.60;1.10;;;10.30;98.20;;;;;;4966148;28;20488;-76
2022/12/25 10:18:54;;;;;;;1.70;1.20;;;10.30;98.20;;;;;;4986823;28;20491;-78
2022/12/25 10:21:23;;;;;;;5.70;2.10;;;10.30;98.20;;;;;;4971750;28;20536;-77
2022/12/25 10:23:56;;;;;;;1.63;1.20;;;10.30;98.20;;;;;;4987431;28;20497;-77
2022/12/25 10:26:24;;;;;;;1.80;1.30;;;10.30;98.20;;;;;;4970844;28;20479;-77
2022/12/25 10:28:58;;;;;;;1.60;1.20;;;10.30;98.20;;;;;;4984237;28;20528;-77
2022/12/25 10:31:27;;;;;;;1.70;1.30;;;10.30;98.20;;;;;;4975226;28;21020;-77
2022/12/25 10:33:54;;;;;;;1.67;1.20;;;10.30;98.20;;;;;;4987721;28;20492;-77
2022/12/25 10:36:24;;;;;;;1.60;1.20;;;10.30;98.20;;;;;;4973405;28;20487;-77
2022/12/25 10:38:51;;;;;;;1.60;1.10;;;10.30;98.20;;;;;;4987031;28;20554;-77
2022/12/25 10:41:33;;;;;;;1.60;1.20;;;10.30;98.20;;;;;;4971778;28;20472;-76
2022/12/25 10:44:00;;;;;;;1.63;1.13;;;10.30;98.20;;;;;;4982931;28;20503;-77
2022/12/25 10:46:28;;;;;;;1.70;1.20;;;10.40;98.20;;;;;;4971625;28;20822;-77
2022/12/25 10:48:58;;;;;;;1.60;1.10;;;10.40;98.20;;;;;;4984036;28;20460;-80
2022/12/25 10:51:32;;;;;;;1.70;1.20;;;10.40;98.20;;;;;;4981200;28;20479;-78
2022/12/25 10:54:01;;;;;;;1.60;1.10;;;10.40;98.20;;;;;;4990043;28;20480;-79
2022/12/25 10:56:28;;;;;;;1.60;1.10;;;10.40;98.20;;;;;;4982829;28;20479;-77
2022/12/25 10:59:05;;;;;;;2.47;2.27;;;10.40;98.20;;;;;;4991383;28;20470;-79
2022/12/25 11:01:32;;;;;;;1.60;1.20;;;10.40;98.20;;;;;;4974350;28;20485;-78
2022/12/25 11:04:01;;;;;;;1.80;1.53;;;10.50;98.20;;;;;;4991724;28;20478;-77
2022/12/25 11:06:31;;;;;;;1.60;1.10;;;10.50;98.20;;;;;;4979108;28;20835;-80
2022/12/25 11:09:00;;;;;;;1.90;1.70;;;10.50;98.20;;;;;;4997545;28;20465;-79
2022/12/25 11:11:28;;;;;;;1.60;1.20;;;10.40;98.20;;;;;;4981445;28;20480;-77
2022/12/25 11:13:59;;;;;;;1.60;1.10;;;10.40;98.20;;;;;;4993855;28;20489;-79
2022/12/25 11:16:29;;;;;;;1.70;1.20;;;10.50;98.20;;;;;;4969734;28;21006;-76
2022/12/25 11:18:57;;;;;;;1.67;1.20;;;10.50;98.20;;;;;;4984480;28;20461;-76
2022/12/25 11:21:26;;;;;;;1.67;1.10;;;10.50;98.20;;;;;;4969503;28;20491;-76
2022/12/25 11:23:59;;;;;;;1.63;1.17;;;10.50;98.20;;;;;;4985220;28;20584;-75
2022/12/25 11:26:27;;;;;;;1.60;1.10;;;10.50;98.20;;;;;;4971473;28;20486;-77
2022/12/25 11:28:55;;;;;;;1.60;1.10;;;10.50;98.20;;;;;;4982321;28;20473;-76
2022/12/25 11:31:27;;;;;;;1.60;1.10;;;10.50;98.20;;;;;;4965668;28;20984;-76
2022/12/25 11:33:57;;;;;;;1.60;1.20;;;10.40;98.20;;;;;;4981480;28;20488;-76
2022/12/25 11:36:31;;;;;;;1.60;1.10;;;10.40;98.20;;;;;;4967744;28;20483;-76
2022/12/25 11:39:05;;;;;;;1.70;1.20;;;10.40;98.20;;;;;;4981587;28;20553;-76
2022/12/25 11:41:34;;;;;;;1.70;1.20;;;10.40;98.20;;;;;;4973424;28;20480;-75
2022/12/25 11:44:04;;;;;;;1.67;1.20;;;10.40;98.20;;;;;;4986911;28;21061;-74
2022/12/25 11:46:39;;;;;;;1.60;1.20;;;10.40;98.20;;;;;;4973124;28;20508;-78
2022/12/25 11:49:14;;;;;;;1.67;1.20;;;10.30;98.20;;;;;;4983453;28;20460;-77
2022/12/25 11:51:44;;;;;;;1.60;1.17;;;10.30;98.20;;;;;;4970906;28;20516;-78
2022/12/25 11:54:19;;;;;;;1.70;1.20;;;10.30;98.20;;;;;;4980462;28;20477;-76
2022/12/25 11:56:46;;;;;;;1.60;1.10;;;10.30;98.20;;;;;;4969083;28;20494;-77
2022/12/25 11:59:20;;;;;;;1.70;1.40;;;10.30;98.20;;;;;;4984446;28;20894;-76
2022/12/25 12:01:50;;;;;;;1.63;1.20;;;10.30;98.20;;;;;;4966165;28;20513;-75
2022/12/25 12:04:20;;;;;;;1.67;1.20;;;10.30;98.20;;;;;;4978767;28;20486;-76
2022/12/25 12:06:53;;;;;;;1.63;1.20;;;10.30;98.20;;;;;;4974995;28;20491;-79
2022/12/25 12:09:34;;;;;;;1.63;1.20;;;10.30;98.20;;;;;;4981809;28;20465;-77
2022/12/25 12:12:07;;;;;;;1.70;1.30;;;10.30;98.20;;;;;;4969230;28;20490;-77
2022/12/25 12:14:45;;;;;;;1.63;1.20;;;10.30;98.20;;;;;;4976324;28;20551;-75
2022/12/25 12:17:14;;;;;;;1.70;1.20;;;10.30;98.20;;;;;;4979850;28;20865;-78
2022/12/25 12:19:42;;;;;;;1.70;1.40;;;10.30;98.20;;;;;;4980077;28;20829;-77
2022/12/25 12:22:24;;;;;;;1.63;1.10;;;10.40;98.20;;;;;;4974672;28;20484;-75
2022/12/25 12:25:00;;;;;;;2.17;1.97;;;10.40;98.20;;;;;;4979184;28;20538;-76
2022/12/25 12:27:32;;;;;;;1.80;1.57;;;10.40;98.20;;;;;;4977181;28;20574;-76
2022/12/25 12:30:00;;;;;;;1.70;1.50;;;10.40;98.20;;;;;;4975907;28;20461;-76
2022/12/25 12:32:37;;;;;;;1.80;1.60;;;10.50;98.20;;;;;;4974937;28;20503;-76
2022/12/25 12:35:14;;;;;;;1.60;1.10;;;10.50;98.20;;;;;;4975041;28;20481;-75
2022/12/25 12:37:41;;;;;;;3.47;3.27;;;10.50;98.20;;;;;;4975713;28;20520;-75
2022/12/25 12:40:28;;;;;;;1.83;1.50;;;10.50;98.20;;;;;;4972768;28;20910;-74
2022/12/25 12:42:55;;;;;;;1.70;1.40;;;10.50;98.20;;;;;;4974574;28;21107;-74
2022/12/25 12:45:27;;;;;;;1.90;1.70;;;10.50;98.20;;;;;;4974152;28;20986;-76
2022/12/25 12:47:54;;;;;;;1.60;1.10;;;10.60;98.20;;;;;;4975620;28;20604;-75
2022/12/25 12:50:35;;;;;;;1.63;1.20;;;10.60;98.20;;;;;;4974828;28;20470;-75
2022/12/25 12:53:23;;;;;;;1.70;1.30;;;10.60;98.20;;;;;;4976178;28;20499;-75
2022/12/25 12:56:38;;;;;;;1.63;1.20;;;10.60;98.20;;;;;;4968517;28;20540;-74
2022/12/25 12:59:09;;;;;;;1.60;1.20;;;10.70;98.20;;;;;;4971230;28;21054;-75
2022/12/25 13:01:50;;;;;;;2.10;1.73;;;10.70;98.20;;;;;;4970279;28;20624;-75
2022/12/25 13:34:25;;;;;;;1.60;1.10;;;11.10;98.20;;;;;;5000389;28;20476;-74
2022/12/25 13:36:52;;;;;;;1.60;1.10;;;11.10;98.20;;;;;;5007694;28;20486;-74
2022/12/25 13:39:20;;;;;;;1.60;1.20;;;11.10;98.20;;;;;;5017920;28;20491;-74
2022/12/25 13:42:05;;;;;;;1.60;1.17;;;11.10;98.20;;;;;;4993305;28;20492;-75
2022/12/25 13:44:41;;;;;;;1.67;1.20;;;11.20;98.20;;;;;;5002297;28;20452;-75
2022/12/25 13:47:20;;;;;;;1.60;1.10;;;11.20;98.20;;;;;;4994619;28;20981;-74
2022/12/25 13:49:49;;;;;;;1.60;1.10;;;11.20;98.20;;;;;;5000382;28;20460;-75
2022/12/25 13:52:19;;;;;;;2.93;2.37;;;11.20;98.20;;;;;;4995856;28;21012;-75
2022/12/25 13:54:57;;;;;;;2.47;2.13;;;11.20;98.20;;;;;;5004312;28;21103;-75
2022/12/25 13:57:27;;;;;;;2.93;2.63;;;11.30;98.20;;;;;;4998901;28;20480;-75
2022/12/25 13:59:55;;;;;;;1.60;1.10;;;11.30;98.20;;;;;;5004575;28;20487;-74
2022/12/25 14:02:28;;;;;;;1.60;1.10;;;11.40;98.20;;;;;;4997048;28;20479;-73
2022/12/25 14:04:56;;;;;;;1.80;1.47;;;11.40;98.20;;;;;;5005633;28;20472;-75
2022/12/25 14:07:24;;;;;;;1.67;1.13;;;11.40;98.20;;;;;;5003629;28;20479;-75
2022/12/25 14:09:56;;;;;;;1.60;1.10;;;11.40;98.20;;;;;;5005424;28;20469;-75
2022/12/25 14:12:24;;;;;;;1.60;1.10;;;11.40;98.20;;;;;;5007200;28;20478;-75
2022/12/25 14:14:53;;;;;;;1.60;1.10;;;11.40;98.20;;;;;;5003322;28;21068;-75
2022/12/25 14:17:21;;;;;;;1.80;1.57;;;11.40;98.20;;;;;;5000807;28;21074;-75
2022/12/25 14:19:58;;;;;;;1.60;1.13;;;11.40;98.20;;;;;;5004578;28;20468;-75
2022/12/25 14:22:26;;;;;;;1.67;1.10;;;11.40;98.20;;;;;;4997044;28;20482;-75
2022/12/25 14:24:53;;;;;;;1.63;1.10;;;11.50;98.20;;;;;;5007066;28;20471;-72
2022/12/25 14:27:21;;;;;;;1.67;1.20;;;11.50;98.20;;;;;;5003924;28;20485;-74
2022/12/25 14:29:50;;;;;;;2.83;2.33;;;11.50;98.20;;;;;;5008603;28;20909;-73
2022/12/25 14:32:20;;;;;;;1.60;1.10;;;11.60;98.20;;;;;;4997986;28;20483;-74
2022/12/25 14:34:54;;;;;;;1.60;1.00;;;11.60;98.20;;;;;;5004457;28;20487;-76
2022/12/25 14:37:40;;;;;;;1.60;1.10;;;11.60;98.20;;;;;;5004375;28;20485;-74
2022/12/25 14:40:21;;;;;;;1.60;1.10;;;11.70;98.20;;;;;;5003571;28;20480;-76
2022/12/25 14:42:55;;;;;;;1.60;1.10;;;11.60;98.20;;;;;;5001756;28;20503;-74
2022/12/25 14:45:28;;;;;;;1.60;1.20;;;11.60;98.20;;;;;;5006184;28;20455;-75
2022/12/25 14:47:57;;;;;;;1.60;1.10;;;11.60;98.20;;;;;;4995617;28;20555;-75
2022/12/25 14:50:30;;;;;;;1.60;1.10;;;11.60;98.20;;;;;;5002637;28;20487;-74
2022/12/25 14:52:59;;;;;;;1.60;1.10;;;11.60;98.20;;;;;;4997034;28;20567;-75
2022/12/25 14:55:28;;;;;;;1.70;1.30;;;11.60;98.20;;;;;;5004194;28;20456;-75
2022/12/25 14:57:59;;;;;;;1.60;1.10;;;11.50;98.20;;;;;;4995450;28;20491;-75
2022/12/25 15:00:30;;;;;;;1.63;1.10;;;11.50;98.20;;;;;;4999769;28;20487;-75
2022/12/25 15:02:59;;;;;;;1.63;1.10;;;11.50;98.20;;;;;;5007130;28;20983;-75
2022/12/25 15:05:29;;;;;;;1.70;1.27;;;11.50;98.20;;;;;;5004079;28;20486;-75
2022/12/25 15:08:19;;;;;;;1.70;1.30;;;11.50;98.20;;;;;;4998587;28;20480;-74
2022/12/25 15:10:46;;;;;;;1.60;1.10;;;11.50;98.20;;;;;;5000479;28;20930;-74
2022/12/25 15:13:14;;;;;;;1.63;1.20;;;11.50;98.20;;;;;;5008685;28;20472;-74
2022/12/25 15:15:49;;;;;;;1.60;1.10;;;11.60;98.20;;;;;;5004244;28;20527;-74
2022/12/25 15:18:17;;;;;;;1.63;1.10;;;11.60;98.20;;;;;;4993841;28;20480;-74
2022/12/25 15:20:44;;;;;;;1.60;1.10;;;11.60;98.20;;;;;;4996003;28;20883;-75
2022/12/25 15:23:25;;;;;;;1.70;1.30;;;11.60;98.20;;;;;;5004111;28;20480;-74